Oella, Maryland
Current Conditions -  °F | °C
As of 3:54 PM on Tuesday 27 Jan 2015 (Local Time) from KBWI Reporting Station
Scattered Clouds Scattered Clouds  
Wind Chill: 24°   Ceiling: Unl
Heat Index: 35°   Visibility: 10mi
Dew Point: 20°   Wind: 18mph
Humidity: 54%   Direction: 300°WNW
Pressure: 29.78"   Gusts: 26mph
Location:  39.2601°N, 76.7979°W
Report Text: KBWI 272054Z 30016G23KT 10SM FEW060 SCT160 SCT250 02/M07 A2978 RMK AO2 SLP084 T00171067 53002
Loading
Personal Weather Stations






























Interactive Weather Map New forecast layout! Learn more

10-Day Weather Forecast

Advertisements
Track Severe Weather on mobile